Decoded Metar for KCCY (CHARLES CITY in IA, USA) (IATA:CCY) | Meteo·Mobile Aviation Weather
aviador You're here:

KCCY Decoded Metar

CHARLES CITY in IA, USA
Report Time2018-12-15 18:15:00
UTC Time2018-12-15 18:30:41
Flight Rules vfr VFR
Wind180° at 10 kt
W.Decomp.*RWY 18: 10.0 kt HW 0.5 kt LCW
RWY 22: 7.3 kt HW 6.8 kt LCW
RWY 12: 5.4 kt HW 8.4 kt RCW
W.Rank180° ranks 9
Current wind is above 180° avg. (9.6)
Visibility9999 m
Phenomena:N/A
Clouds:N/A
Expected CloudBase > 2,400 ft AGL from Temp-Dew spread
CeilingNone
Temp04°C (ISA -9)
Dew Point-2°C (65% RH)
AAT-1.9°C
QNH1021 hPa
Density Alt-128 ft
Elevation1,125 ft
Report Wrong Elevation
Raw Report
KCCY 151815Z AUTO 18010KT 10SM CLR 04/M02 A3016 RMK AO2=

Extra information for KCCY:More info

Metar Taf Metar & Taf Last 4 Metars F.Rules Stats Wind Profile Meteogram Temp Stats Airport Information Weather charts Add Link Nearby VenuesMetar ALERT Operation Metar Decoded Social comments

AIRNAV info for KCCY